sensor_id;sensor_type;location;lat;lon;timestamp;P1;durP1;ratioP1;P2;durP2;ratioP2
24096;SDS011;12275;48.550;12.132;2022-09-01T00:01:12;18.00;;;16.13;;
24096;SDS011;12275;48.550;12.132;2022-09-01T00:03:45;18.65;;;16.75;;
24096;SDS011;12275;48.550;12.132;2022-09-01T00:06:13;19.27;;;16.55;;
24096;SDS011;12275;48.550;12.132;2022-09-01T00:08:46;20.20;;;17.17;;
24096;SDS011;12275;48.550;12.132;2022-09-01T00:11:20;18.58;;;16.23;;
24096;SDS011;12275;48.550;12.132;2022-09-01T00:13:47;18.50;;;15.95;;
24096;SDS011;12275;48.550;12.132;2022-09-01T00:16:14;20.08;;;16.45;;
24096;SDS011;12275;48.550;12.132;2022-09-01T00:18:42;17.80;;;15.88;;
24096;SDS011;12275;48.550;12.132;2022-09-01T00:21:16;18.43;;;16.53;;
24096;SDS011;12275;48.550;12.132;2022-09-01T00:23:44;18.52;;;16.63;;
24096;SDS011;12275;48.550;12.132;2022-09-01T00:26:11;20.40;;;17.80;;
24096;SDS011;12275;48.550;12.132;2022-09-01T00:28:37;20.35;;;17.13;;
24096;SDS011;12275;48.550;12.132;2022-09-01T00:31:04;19.40;;;16.90;;
24096;SDS011;12275;48.550;12.132;2022-09-01T00:33:32;23.75;;;17.85;;
24096;SDS011;12275;48.550;12.132;2022-09-01T00:35:59;23.60;;;17.02;;
24096;SDS011;12275;48.550;12.132;2022-09-01T00:38:25;23.80;;;17.58;;
24096;SDS011;12275;48.550;12.132;2022-09-01T00:40:51;19.88;;;17.67;;
24096;SDS011;12275;48.550;12.132;2022-09-01T00:43:22;20.10;;;16.45;;
24096;SDS011;12275;48.550;12.132;2022-09-01T00:46:00;18.98;;;16.10;;
24096;SDS011;12275;48.550;12.132;2022-09-01T00:48:28;20.75;;;16.75;;
24096;SDS011;12275;48.550;12.132;2022-09-01T00:50:53;19.15;;;14.85;;
24096;SDS011;12275;48.550;12.132;2022-09-01T00:53:20;17.58;;;15.68;;
24096;SDS011;12275;48.550;12.132;2022-09-01T00:55:45;19.20;;;15.40;;
24096;SDS011;12275;48.550;12.132;2022-09-01T00:58:11;18.92;;;15.25;;
24096;SDS011;12275;48.550;12.132;2022-09-01T01:00:37;18.27;;;16.38;;
24096;SDS011;12275;48.550;12.132;2022-09-01T01:03:08;23.50;;;15.90;;
24096;SDS011;12275;48.550;12.132;2022-09-01T01:05:57;18.27;;;15.98;;
24096;SDS011;12275;48.550;12.132;2022-09-01T01:08:32;17.15;;;15.35;;
24096;SDS011;12275;48.550;12.132;2022-09-01T01:13:29;18.38;;;16.17;;
24096;SDS011;12275;48.550;12.132;2022-09-01T01:16:00;20.27;;;16.35;;
24096;SDS011;12275;48.550;12.132;2022-09-01T01:18:28;20.08;;;16.30;;
24096;SDS011;12275;48.550;12.132;2022-09-01T01:21:16;26.73;;;15.90;;
24096;SDS011;12275;48.550;12.132;2022-09-01T01:24:08;16.70;;;14.82;;
24096;SDS011;12275;48.550;12.132;2022-09-01T01:26:48;20.30;;;15.65;;
24096;SDS011;12275;48.550;12.132;2022-09-01T01:29:14;18.40;;;16.60;;
24096;SDS011;12275;48.550;12.132;2022-09-01T01:31:40;20.15;;;15.98;;
24096;SDS011;12275;48.550;12.132;2022-09-01T01:34:05;19.45;;;16.15;;
24096;SDS011;12275;48.550;12.132;2022-09-01T01:36:33;19.20;;;15.48;;
24096;SDS011;12275;48.550;12.132;2022-09-01T01:39:08;18.70;;;16.02;;
24096;SDS011;12275;48.550;12.132;2022-09-01T01:41:39;17.67;;;15.85;;
24096;SDS011;12275;48.550;12.132;2022-09-01T01:44:09;21.52;;;17.15;;
24096;SDS011;12275;48.550;12.132;2022-09-01T01:46:39;18.83;;;16.83;;
24096;SDS011;12275;48.550;12.132;2022-09-01T01:49:07;18.38;;;16.40;;
24096;SDS011;12275;48.550;12.132;2022-09-01T01:51:34;18.83;;;16.45;;
24096;SDS011;12275;48.550;12.132;2022-09-01T01:54:01;18.90;;;16.95;;
24096;SDS011;12275;48.550;12.132;2022-09-01T01:56:29;20.05;;;16.50;;
24096;SDS011;12275;48.550;12.132;2022-09-01T01:58:57;20.48;;;16.27;;
24096;SDS011;12275;48.550;12.132;2022-09-01T02:01:25;19.00;;;16.08;;
24096;SDS011;12275;48.550;12.132;2022-09-01T02:03:53;20.90;;;16.73;;
24096;SDS011;12275;48.550;12.132;2022-09-01T02:06:21;17.20;;;15.40;;
24096;SDS011;12275;48.550;12.132;2022-09-01T02:08:49;17.60;;;15.65;;
24096;SDS011;12275;48.550;12.132;2022-09-01T02:11:16;19.45;;;16.05;;
24096;SDS011;12275;48.550;12.132;2022-09-01T02:13:43;19.77;;;16.27;;
24096;SDS011;12275;48.550;12.132;2022-09-01T02:16:10;17.63;;;15.73;;
24096;SDS011;12275;48.550;12.132;2022-09-01T02:18:42;18.50;;;15.98;;
24096;SDS011;12275;48.550;12.132;2022-09-01T02:21:12;22.85;;;16.58;;
24096;SDS011;12275;48.550;12.132;2022-09-01T02:23:43;18.50;;;16.58;;
24096;SDS011;12275;48.550;12.132;2022-09-01T02:26:11;20.40;;;16.83;;
24096;SDS011;12275;48.550;12.132;2022-09-01T02:28:38;19.67;;;17.10;;
24096;SDS011;12275;48.550;12.132;2022-09-01T02:31:07;22.13;;;15.45;;
24096;SDS011;12275;48.550;12.132;2022-09-01T02:33:34;17.20;;;15.30;;
24096;SDS011;12275;48.550;12.132;2022-09-01T02:36:02;22.17;;;15.07;;
24096;SDS011;12275;48.550;12.132;2022-09-01T02:38:30;20.30;;;15.57;;
24096;SDS011;12275;48.550;12.132;2022-09-01T02:40:58;19.40;;;17.27;;
24096;SDS011;12275;48.550;12.132;2022-09-01T02:43:26;17.52;;;15.52;;
24096;SDS011;12275;48.550;12.132;2022-09-01T02:45:57;19.10;;;16.27;;
24096;SDS011;12275;48.550;12.132;2022-09-01T02:48:34;21.77;;;15.70;;
24096;SDS011;12275;48.550;12.132;2022-09-01T02:51:04;21.73;;;17.00;;
24096;SDS011;12275;48.550;12.132;2022-09-01T02:53:32;19.45;;;16.65;;
24096;SDS011;12275;48.550;12.132;2022-09-01T02:55:59;19.10;;;16.10;;
24096;SDS011;12275;48.550;12.132;2022-09-01T02:58:27;20.88;;;16.38;;
24096;SDS011;12275;48.550;12.132;2022-09-01T03:00:54;20.13;;;17.10;;
24096;SDS011;12275;48.550;12.132;2022-09-01T03:03:22;23.23;;;17.17;;
24096;SDS011;12275;48.550;12.132;2022-09-01T03:05:52;16.77;;;15.07;;
24096;SDS011;12275;48.550;12.132;2022-09-01T03:08:21;17.80;;;14.60;;
24096;SDS011;12275;48.550;12.132;2022-09-01T03:10:48;15.10;;;13.50;;
24096;SDS011;12275;48.550;12.132;2022-09-01T03:13:17;17.90;;;14.98;;
24096;SDS011;12275;48.550;12.132;2022-09-01T03:15:45;16.63;;;14.13;;
24096;SDS011;12275;48.550;12.132;2022-09-01T03:18:12;18.95;;;14.57;;
24096;SDS011;12275;48.550;12.132;2022-09-01T03:20:39;16.40;;;14.57;;
24096;SDS011;12275;48.550;12.132;2022-09-01T03:23:11;21.65;;;14.93;;
24096;SDS011;12275;48.550;12.132;2022-09-01T03:25:39;17.88;;;15.93;;
24096;SDS011;12275;48.550;12.132;2022-09-01T03:28:09;19.02;;;14.98;;
24096;SDS011;12275;48.550;12.132;2022-09-01T03:30:37;19.85;;;15.15;;
24096;SDS011;12275;48.550;12.132;2022-09-01T03:33:05;19.08;;;15.15;;
24096;SDS011;12275;48.550;12.132;2022-09-01T03:35:32;18.98;;;15.35;;
24096;SDS011;12275;48.550;12.132;2022-09-01T03:37:58;19.10;;;15.70;;
24096;SDS011;12275;48.550;12.132;2022-09-01T03:40:26;26.77;;;21.02;;
24096;SDS011;12275;48.550;12.132;2022-09-01T03:42:56;26.38;;;22.70;;
24096;SDS011;12275;48.550;12.132;2022-09-01T03:45:23;30.40;;;24.10;;
24096;SDS011;12275;48.550;12.132;2022-09-01T03:47:49;24.55;;;21.00;;
24096;SDS011;12275;48.550;12.132;2022-09-01T03:50:17;24.73;;;20.88;;
24096;SDS011;12275;48.550;12.132;2022-09-01T03:52:55;23.05;;;20.50;;
24096;SDS011;12275;48.550;12.132;2022-09-01T03:55:23;23.30;;;19.63;;
24096;SDS011;12275;48.550;12.132;2022-09-01T03:57:52;22.88;;;19.08;;
24096;SDS011;12275;48.550;12.132;2022-09-01T04:00:20;19.33;;;17.23;;
24096;SDS011;12275;48.550;12.132;2022-09-01T04:02:49;19.08;;;15.95;;
24096;SDS011;12275;48.550;12.132;2022-09-01T04:05:17;19.50;;;15.43;;
24096;SDS011;12275;48.550;12.132;2022-09-01T04:07:48;18.20;;;15.70;;
24096;SDS011;12275;48.550;12.132;2022-09-01T04:10:15;18.55;;;14.25;;
24096;SDS011;12275;48.550;12.132;2022-09-01T04:12:41;19.35;;;14.60;;
24096;SDS011;12275;48.550;12.132;2022-09-01T04:15:08;21.38;;;15.70;;
24096;SDS011;12275;48.550;12.132;2022-09-01T04:17:35;19.17;;;15.13;;
24096;SDS011;12275;48.550;12.132;2022-09-01T04:20:25;18.90;;;15.27;;
24096;SDS011;12275;48.550;12.132;2022-09-01T04:22:51;18.35;;;15.68;;
24096;SDS011;12275;48.550;12.132;2022-09-01T04:25:18;18.55;;;15.05;;
24096;SDS011;12275;48.550;12.132;2022-09-01T04:27:50;19.83;;;15.73;;
24096;SDS011;12275;48.550;12.132;2022-09-01T04:30:21;17.58;;;15.18;;
24096;SDS011;12275;48.550;12.132;2022-09-01T04:32:51;20.48;;;15.65;;
24096;SDS011;12275;48.550;12.132;2022-09-01T04:35:21;16.45;;;14.80;;
24096;SDS011;12275;48.550;12.132;2022-09-01T04:37:57;21.38;;;14.52;;
24096;SDS011;12275;48.550;12.132;2022-09-01T04:40:24;20.20;;;14.85;;
24096;SDS011;12275;48.550;12.132;2022-09-01T04:42:51;16.60;;;14.55;;
24096;SDS011;12275;48.550;12.132;2022-09-01T04:45:17;18.13;;;16.00;;
24096;SDS011;12275;48.550;12.132;2022-09-01T04:47:46;21.83;;;16.48;;
24096;SDS011;12275;48.550;12.132;2022-09-01T04:50:12;21.08;;;16.75;;
24096;SDS011;12275;48.550;12.132;2022-09-01T04:52:41;22.73;;;17.40;;
24096;SDS011;12275;48.550;12.132;2022-09-01T04:55:12;20.88;;;17.42;;
24096;SDS011;12275;48.550;12.132;2022-09-01T04:57:42;17.65;;;15.75;;
24096;SDS011;12275;48.550;12.132;2022-09-01T05:00:17;17.75;;;15.85;;
24096;SDS011;12275;48.550;12.132;2022-09-01T05:02:55;20.50;;;16.25;;
24096;SDS011;12275;48.550;12.132;2022-09-01T05:05:27;21.02;;;16.17;;
24096;SDS011;12275;48.550;12.132;2022-09-01T05:08:03;20.25;;;16.70;;
24096;SDS011;12275;48.550;12.132;2022-09-01T05:10:30;19.98;;;16.80;;
24096;SDS011;12275;48.550;12.132;2022-09-01T05:12:58;21.92;;;17.10;;
24096;SDS011;12275;48.550;12.132;2022-09-01T05:15:25;19.77;;;16.70;;
24096;SDS011;12275;48.550;12.132;2022-09-01T05:17:51;23.63;;;17.45;;
24096;SDS011;12275;48.550;12.132;2022-09-01T05:20:20;20.23;;;16.38;;
24096;SDS011;12275;48.550;12.132;2022-09-01T05:22:45;18.48;;;16.58;;
24096;SDS011;12275;48.550;12.132;2022-09-01T05:25:11;20.80;;;17.90;;
24096;SDS011;12275;48.550;12.132;2022-09-01T05:27:42;20.23;;;16.83;;
24096;SDS011;12275;48.550;12.132;2022-09-01T05:32:42;20.42;;;16.52;;
24096;SDS011;12275;48.550;12.132;2022-09-01T05:35:09;19.25;;;16.17;;
24096;SDS011;12275;48.550;12.132;2022-09-01T05:37:35;19.15;;;17.15;;
24096;SDS011;12275;48.550;12.132;2022-09-01T05:40:02;18.15;;;16.17;;
24096;SDS011;12275;48.550;12.132;2022-09-01T05:42:33;20.33;;;17.90;;
24096;SDS011;12275;48.550;12.132;2022-09-01T05:45:02;19.63;;;17.52;;
24096;SDS011;12275;48.550;12.132;2022-09-01T05:47:28;24.08;;;17.08;;
24096;SDS011;12275;48.550;12.132;2022-09-01T05:49:54;18.80;;;16.58;;
24096;SDS011;12275;48.550;12.132;2022-09-01T05:52:20;21.08;;;17.23;;
24096;SDS011;12275;48.550;12.132;2022-09-01T05:54:49;21.08;;;18.77;;
24096;SDS011;12275;48.550;12.132;2022-09-01T05:57:16;23.60;;;16.88;;
24096;SDS011;12275;48.550;12.132;2022-09-01T05:59:43;22.60;;;17.27;;
24096;SDS011;12275;48.550;12.132;2022-09-01T06:02:10;19.02;;;17.02;;
24096;SDS011;12275;48.550;12.132;2022-09-01T06:04:36;18.52;;;16.58;;
24096;SDS011;12275;48.550;12.132;2022-09-01T06:07:10;18.77;;;16.88;;
24096;SDS011;12275;48.550;12.132;2022-09-01T06:09:38;18.63;;;16.02;;
24096;SDS011;12275;48.550;12.132;2022-09-01T06:12:06;17.90;;;15.88;;
24096;SDS011;12275;48.550;12.132;2022-09-01T06:14:41;18.30;;;15.20;;
24096;SDS011;12275;48.550;12.132;2022-09-01T06:17:08;20.83;;;14.57;;
24096;SDS011;12275;48.550;12.132;2022-09-01T06:19:35;15.40;;;13.88;;
24096;SDS011;12275;48.550;12.132;2022-09-01T06:22:02;15.27;;;13.52;;
24096;SDS011;12275;48.550;12.132;2022-09-01T06:24:28;16.92;;;12.57;;
24096;SDS011;12275;48.550;12.132;2022-09-01T06:26:54;16.45;;;13.32;;
24096;SDS011;12275;48.550;12.132;2022-09-01T06:29:19;15.80;;;13.45;;
24096;SDS011;12275;48.550;12.132;2022-09-01T06:31:46;15.50;;;12.73;;
24096;SDS011;12275;48.550;12.132;2022-09-01T06:34:15;14.13;;;12.27;;
24096;SDS011;12275;48.550;12.132;2022-09-01T06:36:42;31.63;;;13.70;;
24096;SDS011;12275;48.550;12.132;2022-09-01T06:39:09;56.80;;;16.90;;
24096;SDS011;12275;48.550;12.132;2022-09-01T06:41:46;53.13;;;14.80;;
24096;SDS011;12275;48.550;12.132;2022-09-01T06:44:17;69.50;;;16.38;;
24096;SDS011;12275;48.550;12.132;2022-09-01T06:46:46;46.30;;;14.57;;
24096;SDS011;12275;48.550;12.132;2022-09-01T06:49:16;63.78;;;16.05;;
24096;SDS011;12275;48.550;12.132;2022-09-01T06:51:42;37.75;;;14.52;;
24096;SDS011;12275;48.550;12.132;2022-09-01T06:54:10;24.75;;;11.90;;
24096;SDS011;12275;48.550;12.132;2022-09-01T06:56:38;17.88;;;12.00;;
24096;SDS011;12275;48.550;12.132;2022-09-01T06:59:03;12.63;;;10.63;;
24096;SDS011;12275;48.550;12.132;2022-09-01T07:01:32;18.92;;;10.25;;
24096;SDS011;12275;48.550;12.132;2022-09-01T07:03:58;12.73;;;10.35;;
24096;SDS011;12275;48.550;12.132;2022-09-01T07:06:25;11.65;;;10.30;;
24096;SDS011;12275;48.550;12.132;2022-09-01T07:08:56;12.00;;;10.82;;
24096;SDS011;12275;48.550;12.132;2022-09-01T07:11:24;10.82;;;9.70;;
24096;SDS011;12275;48.550;12.132;2022-09-01T07:13:53;14.75;;;9.75;;
24096;SDS011;12275;48.550;12.132;2022-09-01T07:16:22;13.23;;;9.45;;
24096;SDS011;12275;48.550;12.132;2022-09-01T07:18:49;15.52;;;10.52;;
24096;SDS011;12275;48.550;12.132;2022-09-01T07:21:16;11.05;;;9.23;;
24096;SDS011;12275;48.550;12.132;2022-09-01T07:23:42;10.98;;;9.50;;
24096;SDS011;12275;48.550;12.132;2022-09-01T07:26:09;9.75;;;8.75;;
24096;SDS011;12275;48.550;12.132;2022-09-01T07:28:36;9.68;;;8.43;;
24096;SDS011;12275;48.550;12.132;2022-09-01T07:31:02;8.32;;;7.53;;
24096;SDS011;12275;48.550;12.132;2022-09-01T07:33:29;9.25;;;8.18;;
24096;SDS011;12275;48.550;12.132;2022-09-01T07:35:56;10.95;;;7.78;;
24096;SDS011;12275;48.550;12.132;2022-09-01T07:38:25;11.10;;;6.90;;
24096;SDS011;12275;48.550;12.132;2022-09-01T07:40:52;10.15;;;8.18;;
24096;SDS011;12275;48.550;12.132;2022-09-01T07:45:46;9.25;;;7.57;;
24096;SDS011;12275;48.550;12.132;2022-09-01T07:48:15;8.50;;;7.70;;
24096;SDS011;12275;48.550;12.132;2022-09-01T07:50:45;7.70;;;6.90;;
24096;SDS011;12275;48.550;12.132;2022-09-01T07:53:12;8.05;;;7.22;;
24096;SDS011;12275;48.550;12.132;2022-09-01T07:55:42;7.60;;;6.85;;
24096;SDS011;12275;48.550;12.132;2022-09-01T07:58:13;7.65;;;6.95;;
24096;SDS011;12275;48.550;12.132;2022-09-01T08:00:39;7.70;;;6.93;;
24096;SDS011;12275;48.550;12.132;2022-09-01T08:03:10;7.30;;;6.60;;
24096;SDS011;12275;48.550;12.132;2022-09-01T08:05:36;6.63;;;6.03;;
24096;SDS011;12275;48.550;12.132;2022-09-01T08:08:02;6.75;;;6.05;;
24096;SDS011;12275;48.550;12.132;2022-09-01T08:10:28;6.20;;;5.60;;
24096;SDS011;12275;48.550;12.132;2022-09-01T08:12:54;6.40;;;5.80;;
24096;SDS011;12275;48.550;12.132;2022-09-01T08:15:20;6.80;;;6.20;;
24096;SDS011;12275;48.550;12.132;2022-09-01T08:17:46;7.03;;;6.32;;
24096;SDS011;12275;48.550;12.132;2022-09-01T08:20:12;10.30;;;5.78;;
24096;SDS011;12275;48.550;12.132;2022-09-01T08:22:40;5.80;;;5.40;;
24096;SDS011;12275;48.550;12.132;2022-09-01T08:25:06;7.90;;;5.65;;
24096;SDS011;12275;48.550;12.132;2022-09-01T08:27:36;6.43;;;5.03;;
24096;SDS011;12275;48.550;12.132;2022-09-01T08:30:06;5.95;;;5.45;;
24096;SDS011;12275;48.550;12.132;2022-09-01T08:32:34;5.07;;;4.68;;
24096;SDS011;12275;48.550;12.132;2022-09-01T08:35:00;7.43;;;4.35;;
24096;SDS011;12275;48.550;12.132;2022-09-01T08:37:28;4.55;;;4.15;;
24096;SDS011;12275;48.550;12.132;2022-09-01T08:39:53;6.70;;;4.55;;
24096;SDS011;12275;48.550;12.132;2022-09-01T08:47:17;4.80;;;4.35;;
24096;SDS011;12275;48.550;12.132;2022-09-01T08:49:44;6.32;;;4.50;;
24096;SDS011;12275;48.550;12.132;2022-09-01T08:52:31;4.32;;;3.97;;
24096;SDS011;12275;48.550;12.132;2022-09-01T08:57:39;4.45;;;4.10;;
24096;SDS011;12275;48.550;12.132;2022-09-01T09:00:09;4.00;;;3.63;;
24096;SDS011;12275;48.550;12.132;2022-09-01T09:17:00;3.42;;;3.13;;
24096;SDS011;12275;48.550;12.132;2022-09-01T09:21:56;3.30;;;3.00;;
24096;SDS011;12275;48.550;12.132;2022-09-01T09:24:27;4.30;;;3.20;;
24096;SDS011;12275;48.550;12.132;2022-09-01T09:27:15;4.25;;;2.85;;
24096;SDS011;12275;48.550;12.132;2022-09-01T09:29:40;8.30;;;2.70;;
24096;SDS011;12275;48.550;12.132;2022-09-01T09:32:08;3.08;;;2.65;;
24096;SDS011;12275;48.550;12.132;2022-09-01T09:34:41;5.78;;;2.92;;
24096;SDS011;12275;48.550;12.132;2022-09-01T09:37:20;6.00;;;3.30;;
24096;SDS011;12275;48.550;12.132;2022-09-01T09:45:22;4.50;;;2.75;;
24096;SDS011;12275;48.550;12.132;2022-09-01T09:47:49;3.40;;;3.10;;
24096;SDS011;12275;48.550;12.132;2022-09-01T09:50:28;4.00;;;3.70;;
24096;SDS011;12275;48.550;12.132;2022-09-01T09:53:09;5.13;;;3.33;;
24096;SDS011;12275;48.550;12.132;2022-09-01T09:55:36;2.63;;;2.42;;
24096;SDS011;12275;48.550;12.132;2022-09-01T09:58:14;4.28;;;2.60;;
24096;SDS011;12275;48.550;12.132;2022-09-01T10:00:40;2.95;;;2.65;;
24096;SDS011;12275;48.550;12.132;2022-09-01T10:03:32;3.63;;;2.80;;
24096;SDS011;12275;48.550;12.132;2022-09-01T10:06:01;3.60;;;3.13;;
24096;SDS011;12275;48.550;12.132;2022-09-01T10:10:58;6.35;;;2.55;;
24096;SDS011;12275;48.550;12.132;2022-09-01T10:13:25;3.28;;;3.08;;
24096;SDS011;12275;48.550;12.132;2022-09-01T10:16:04;2.60;;;2.40;;
24096;SDS011;12275;48.550;12.132;2022-09-01T10:18:35;3.00;;;2.80;;
24096;SDS011;12275;48.550;12.132;2022-09-01T10:21:03;2.92;;;2.70;;
24096;SDS011;12275;48.550;12.132;2022-09-01T10:23:33;3.10;;;2.80;;
24096;SDS011;12275;48.550;12.132;2022-09-01T10:26:02;4.30;;;3.90;;
24096;SDS011;12275;48.550;12.132;2022-09-01T10:28:30;3.80;;;3.50;;
24096;SDS011;12275;48.550;12.132;2022-09-01T10:30:57;5.88;;;3.97;;
24096;SDS011;12275;48.550;12.132;2022-09-01T10:33:23;4.10;;;3.03;;
24096;SDS011;12275;48.550;12.132;2022-09-01T10:35:50;3.22;;;2.90;;
24096;SDS011;12275;48.550;12.132;2022-09-01T10:38:24;2.78;;;2.40;;
24096;SDS011;12275;48.550;12.132;2022-09-01T10:40:52;2.67;;;2.47;;
24096;SDS011;12275;48.550;12.132;2022-09-01T10:46:03;2.85;;;2.47;;
24096;SDS011;12275;48.550;12.132;2022-09-01T10:48:32;7.13;;;2.65;;
24096;SDS011;12275;48.550;12.132;2022-09-01T10:53:39;2.70;;;2.20;;
24096;SDS011;12275;48.550;12.132;2022-09-01T11:04:06;5.90;;;4.10;;
24096;SDS011;12275;48.550;12.132;2022-09-01T11:09:33;7.45;;;6.75;;
24096;SDS011;12275;48.550;12.132;2022-09-01T11:14:27;3.88;;;3.58;;
24096;SDS011;12275;48.550;12.132;2022-09-01T11:19:37;2.65;;;2.45;;
24096;SDS011;12275;48.550;12.132;2022-09-01T11:22:10;3.80;;;2.63;;
24096;SDS011;12275;48.550;12.132;2022-09-01T11:27:06;2.42;;;2.30;;
24096;SDS011;12275;48.550;12.132;2022-09-01T11:32:18;2.85;;;2.28;;
24096;SDS011;12275;48.550;12.132;2022-09-01T11:34:44;3.65;;;3.20;;
24096;SDS011;12275;48.550;12.132;2022-09-01T11:37:16;4.72;;;2.53;;
24096;SDS011;12275;48.550;12.132;2022-09-01T11:39:50;3.00;;;2.25;;
24096;SDS011;12275;48.550;12.132;2022-09-01T11:42:21;4.13;;;2.13;;
24096;SDS011;12275;48.550;12.132;2022-09-01T11:47:25;2.60;;;2.40;;
24096;SDS011;12275;48.550;12.132;2022-09-01T11:49:59;2.55;;;1.95;;
24096;SDS011;12275;48.550;12.132;2022-09-01T11:52:27;2.95;;;2.72;;
24096;SDS011;12275;48.550;12.132;2022-09-01T11:54:54;10.02;;;7.57;;
24096;SDS011;12275;48.550;12.132;2022-09-01T11:59:46;2.58;;;2.05;;
24096;SDS011;12275;48.550;12.132;2022-09-01T12:02:19;6.50;;;2.40;;
24096;SDS011;12275;48.550;12.132;2022-09-01T12:04:47;3.25;;;2.95;;
24096;SDS011;12275;48.550;12.132;2022-09-01T12:07:22;2.83;;;2.63;;
24096;SDS011;12275;48.550;12.132;2022-09-01T12:09:49;2.63;;;2.40;;
24096;SDS011;12275;48.550;12.132;2022-09-01T12:15:18;2.22;;;2.13;;
24096;SDS011;12275;48.550;12.132;2022-09-01T12:17:40;2.42;;;2.30;;
24096;SDS011;12275;48.550;12.132;2022-09-01T12:22:47;2.50;;;1.92;;
24096;SDS011;12275;48.550;12.132;2022-09-01T12:25:17;2.40;;;2.00;;
24096;SDS011;12275;48.550;12.132;2022-09-01T12:27:44;3.10;;;1.70;;
24096;SDS011;12275;48.550;12.132;2022-09-01T12:30:10;3.20;;;1.92;;
24096;SDS011;12275;48.550;12.132;2022-09-01T12:32:37;2.15;;;1.70;;
24096;SDS011;12275;48.550;12.132;2022-09-01T12:35:03;2.45;;;1.75;;
24096;SDS011;12275;48.550;12.132;2022-09-01T12:37:30;1.88;;;1.50;;
24096;SDS011;12275;48.550;12.132;2022-09-01T12:39:57;1.95;;;1.85;;
24096;SDS011;12275;48.550;12.132;2022-09-01T12:42:27;1.50;;;1.40;;
24096;SDS011;12275;48.550;12.132;2022-09-01T12:50:45;7.93;;;2.00;;
24096;SDS011;12275;48.550;12.132;2022-09-01T12:52:46;2.20;;;1.70;;
24096;SDS011;12275;48.550;12.132;2022-09-01T12:55:22;2.17;;;2.03;;
24096;SDS011;12275;48.550;12.132;2022-09-01T12:57:49;4.03;;;1.77;;
24096;SDS011;12275;48.550;12.132;2022-09-01T13:00:18;1.85;;;1.63;;
24096;SDS011;12275;48.550;12.132;2022-09-01T13:05:44;2.67;;;2.10;;
24096;SDS011;12275;48.550;12.132;2022-09-01T13:08:07;5.25;;;2.50;;
24096;SDS011;12275;48.550;12.132;2022-09-01T13:10:55;3.75;;;2.22;;
24096;SDS011;12275;48.550;12.132;2022-09-01T13:13:20;3.45;;;2.17;;
24096;SDS011;12275;48.550;12.132;2022-09-01T13:15:49;3.70;;;2.25;;
24096;SDS011;12275;48.550;12.132;2022-09-01T13:18:16;2.08;;;1.70;;
24096;SDS011;12275;48.550;12.132;2022-09-01T13:20:42;2.28;;;2.08;;
24096;SDS011;12275;48.550;12.132;2022-09-01T13:23:09;6.53;;;5.20;;
24096;SDS011;12275;48.550;12.132;2022-09-01T13:25:36;7.82;;;6.00;;
24096;SDS011;12275;48.550;12.132;2022-09-01T13:28:04;2.80;;;2.20;;
24096;SDS011;12275;48.550;12.132;2022-09-01T13:30:31;2.92;;;1.90;;
24096;SDS011;12275;48.550;12.132;2022-09-01T13:32:58;3.20;;;1.55;;
24096;SDS011;12275;48.550;12.132;2022-09-01T13:35:24;1.75;;;1.65;;
24096;SDS011;12275;48.550;12.132;2022-09-01T13:37:50;1.80;;;1.63;;
24096;SDS011;12275;48.550;12.132;2022-09-01T13:40:19;1.92;;;1.65;;
24096;SDS011;12275;48.550;12.132;2022-09-01T13:42:46;2.13;;;1.90;;
24096;SDS011;12275;48.550;12.132;2022-09-01T13:45:14;1.92;;;1.60;;
24096;SDS011;12275;48.550;12.132;2022-09-01T13:47:42;2.28;;;2.08;;
24096;SDS011;12275;48.550;12.132;2022-09-01T13:50:09;2.47;;;2.30;;
24096;SDS011;12275;48.550;12.132;2022-09-01T13:52:41;1.70;;;1.60;;
24096;SDS011;12275;48.550;12.132;2022-09-01T13:55:09;1.70;;;1.60;;
24096;SDS011;12275;48.550;12.132;2022-09-01T13:57:35;2.08;;;1.50;;
24096;SDS011;12275;48.550;12.132;2022-09-01T14:00:03;4.22;;;1.70;;
24096;SDS011;12275;48.550;12.132;2022-09-01T14:02:30;3.00;;;1.80;;
24096;SDS011;12275;48.550;12.132;2022-09-01T14:04:56;2.17;;;1.63;;
24096;SDS011;12275;48.550;12.132;2022-09-01T14:07:22;4.25;;;1.90;;
24096;SDS011;12275;48.550;12.132;2022-09-01T14:09:48;2.17;;;1.70;;
24096;SDS011;12275;48.550;12.132;2022-09-01T14:12:14;3.65;;;2.13;;
24096;SDS011;12275;48.550;12.132;2022-09-01T14:14:40;2.22;;;1.85;;
24096;SDS011;12275;48.550;12.132;2022-09-01T14:17:06;6.40;;;1.83;;
24096;SDS011;12275;48.550;12.132;2022-09-01T14:19:33;3.03;;;1.67;;
24096;SDS011;12275;48.550;12.132;2022-09-01T14:22:00;5.10;;;2.15;;
24096;SDS011;12275;48.550;12.132;2022-09-01T14:24:29;3.42;;;2.17;;
24096;SDS011;12275;48.550;12.132;2022-09-01T14:26:56;1.80;;;1.70;;
24096;SDS011;12275;48.550;12.132;2022-09-01T14:29:22;4.05;;;1.85;;
24096;SDS011;12275;48.550;12.132;2022-09-01T14:31:48;2.25;;;2.05;;
24096;SDS011;12275;48.550;12.132;2022-09-01T14:34:14;1.63;;;1.50;;
24096;SDS011;12275;48.550;12.132;2022-09-01T14:36:41;4.03;;;3.33;;
24096;SDS011;12275;48.550;12.132;2022-09-01T14:39:07;5.25;;;3.65;;
24096;SDS011;12275;48.550;12.132;2022-09-01T14:41:33;2.20;;;1.92;;
24096;SDS011;12275;48.550;12.132;2022-09-01T14:44:00;3.75;;;1.98;;
24096;SDS011;12275;48.550;12.132;2022-09-01T14:46:26;1.90;;;1.70;;
24096;SDS011;12275;48.550;12.132;2022-09-01T14:48:54;1.77;;;1.67;;
24096;SDS011;12275;48.550;12.132;2022-09-01T14:51:22;1.90;;;1.80;;
24096;SDS011;12275;48.550;12.132;2022-09-01T14:53:49;1.58;;;1.50;;
24096;SDS011;12275;48.550;12.132;2022-09-01T14:56:15;1.80;;;1.70;;
24096;SDS011;12275;48.550;12.132;2022-09-01T14:58:43;1.85;;;1.75;;
24096;SDS011;12275;48.550;12.132;2022-09-01T15:01:11;1.92;;;1.60;;
24096;SDS011;12275;48.550;12.132;2022-09-01T15:03:37;1.75;;;1.65;;
24096;SDS011;12275;48.550;12.132;2022-09-01T15:06:03;2.90;;;2.30;;
24096;SDS011;12275;48.550;12.132;2022-09-01T15:08:29;2.80;;;2.10;;
24096;SDS011;12275;48.550;12.132;2022-09-01T15:10:55;4.25;;;2.00;;
24096;SDS011;12275;48.550;12.132;2022-09-01T15:13:21;6.80;;;2.10;;
24096;SDS011;12275;48.550;12.132;2022-09-01T15:15:47;2.22;;;2.00;;
24096;SDS011;12275;48.550;12.132;2022-09-01T15:18:12;2.85;;;2.22;;
24096;SDS011;12275;48.550;12.132;2022-09-01T15:20:39;2.28;;;2.05;;
24096;SDS011;12275;48.550;12.132;2022-09-01T15:23:09;1.75;;;1.63;;
24096;SDS011;12275;48.550;12.132;2022-09-01T15:25:39;1.73;;;1.63;;
24096;SDS011;12275;48.550;12.132;2022-09-01T15:28:05;1.38;;;1.38;;
24096;SDS011;12275;48.550;12.132;2022-09-01T15:30:31;2.03;;;1.88;;
24096;SDS011;12275;48.550;12.132;2022-09-01T15:32:59;2.47;;;1.85;;
24096;SDS011;12275;48.550;12.132;2022-09-01T15:35:26;2.00;;;1.90;;
24096;SDS011;12275;48.550;12.132;2022-09-01T15:37:53;6.43;;;1.60;;
24096;SDS011;12275;48.550;12.132;2022-09-01T15:40:21;1.65;;;1.55;;
24096;SDS011;12275;48.550;12.132;2022-09-01T15:42:47;2.58;;;1.50;;
24096;SDS011;12275;48.550;12.132;2022-09-01T15:45:14;1.80;;;1.70;;
24096;SDS011;12275;48.550;12.132;2022-09-01T15:47:43;2.08;;;1.98;;
24096;SDS011;12275;48.550;12.132;2022-09-01T15:50:10;2.80;;;1.58;;
24096;SDS011;12275;48.550;12.132;2022-09-01T15:52:49;1.88;;;1.67;;
24096;SDS011;12275;48.550;12.132;2022-09-01T15:55:21;1.70;;;1.60;;